sensor_id;sensor_type;location;lat;lon;timestamp;P1;durP1;ratioP1;P2;durP2;ratioP2
934;SDS011;454;53.254;10.400;2024-02-23T05:00:28;1.00;;;0.63;;
934;SDS011;454;53.254;10.400;2024-02-23T05:02:58;1.05;;;0.82;;
934;SDS011;454;53.254;10.400;2024-02-23T05:05:25;0.60;;;0.60;;
934;SDS011;454;53.254;10.400;2024-02-23T05:07:51;0.55;;;0.55;;
934;SDS011;454;53.254;10.400;2024-02-23T05:10:18;1.85;;;0.90;;
934;SDS011;454;53.254;10.400;2024-02-23T05:12:45;1.48;;;0.60;;
934;SDS011;454;53.254;10.400;2024-02-23T05:15:11;1.10;;;0.73;;
934;SDS011;454;53.254;10.400;2024-02-23T05:17:39;1.15;;;1.15;;
934;SDS011;454;53.254;10.400;2024-02-23T05:20:06;0.75;;;0.50;;
934;SDS011;454;53.254;10.400;2024-02-23T05:22:35;0.65;;;0.65;;
934;SDS011;454;53.254;10.400;2024-02-23T05:25:02;0.50;;;0.50;;
934;SDS011;454;53.254;10.400;2024-02-23T05:27:29;3.33;;;0.98;;
934;SDS011;454;53.254;10.400;2024-02-23T05:29:56;0.98;;;0.98;;
934;SDS011;454;53.254;10.400;2024-02-23T05:32:23;0.95;;;0.95;;
934;SDS011;454;53.254;10.400;2024-02-23T05:34:51;0.90;;;0.85;;
934;SDS011;454;53.254;10.400;2024-02-23T05:37:19;1.05;;;0.65;;
934;SDS011;454;53.254;10.400;2024-02-23T05:39:46;0.40;;;0.40;;
934;SDS011;454;53.254;10.400;2024-02-23T05:42:12;1.17;;;1.13;;
934;SDS011;454;53.254;10.400;2024-02-23T05:44:39;0.60;;;0.60;;
934;SDS011;454;53.254;10.400;2024-02-23T05:47:09;0.93;;;0.93;;
934;SDS011;454;53.254;10.400;2024-02-23T05:49:36;3.75;;;1.50;;
934;SDS011;454;53.254;10.400;2024-02-23T05:52:04;1.23;;;1.23;;
934;SDS011;454;53.254;10.400;2024-02-23T05:54:31;2.58;;;1.05;;
934;SDS011;454;53.254;10.400;2024-02-23T05:56:58;0.73;;;0.70;;
934;SDS011;454;53.254;10.400;2024-02-23T05:59:25;0.73;;;0.73;;
934;SDS011;454;53.254;10.400;2024-02-23T06:01:52;0.65;;;0.65;;
934;SDS011;454;53.254;10.400;2024-02-23T06:04:21;0.82;;;0.82;;
934;SDS011;454;53.254;10.400;2024-02-23T06:06:48;0.75;;;0.75;;
934;SDS011;454;53.254;10.400;2024-02-23T06:09:16;0.85;;;0.57;;
934;SDS011;454;53.254;10.400;2024-02-23T06:11:44;1.05;;;1.00;;
934;SDS011;454;53.254;10.400;2024-02-23T06:14:10;0.75;;;0.75;;
934;SDS011;454;53.254;10.400;2024-02-23T06:16:37;0.90;;;0.90;;
934;SDS011;454;53.254;10.400;2024-02-23T06:19:05;1.58;;;1.45;;
934;SDS011;454;53.254;10.400;2024-02-23T06:21:32;1.33;;;1.08;;
934;SDS011;454;53.254;10.400;2024-02-23T06:23:58;1.48;;;1.48;;
934;SDS011;454;53.254;10.400;2024-02-23T06:26:26;0.70;;;0.70;;
934;SDS011;454;53.254;10.400;2024-02-23T06:28:53;1.30;;;0.73;;
934;SDS011;454;53.254;10.400;2024-02-23T06:31:20;0.85;;;0.85;;
934;SDS011;454;53.254;10.400;2024-02-23T06:33:46;8.23;;;1.35;;
934;SDS011;454;53.254;10.400;2024-02-23T06:36:14;1.10;;;1.05;;
934;SDS011;454;53.254;10.400;2024-02-23T06:38:41;1.05;;;1.05;;
934;SDS011;454;53.254;10.400;2024-02-23T06:41:07;0.98;;;0.98;;
934;SDS011;454;53.254;10.400;2024-02-23T06:43:37;1.00;;;1.00;;
934;SDS011;454;53.254;10.400;2024-02-23T06:46:05;1.00;;;1.00;;
934;SDS011;454;53.254;10.400;2024-02-23T06:48:33;1.00;;;1.00;;
934;SDS011;454;53.254;10.400;2024-02-23T06:51:00;0.80;;;0.80;;
934;SDS011;454;53.254;10.400;2024-02-23T06:53:27;0.80;;;0.80;;
934;SDS011;454;53.254;10.400;2024-02-23T06:55:54;0.80;;;0.80;;
934;SDS011;454;53.254;10.400;2024-02-23T06:58:21;0.95;;;0.95;;
934;SDS011;454;53.254;10.400;2024-02-23T07:00:49;7.72;;;2.03;;
934;SDS011;454;53.254;10.400;2024-02-23T07:03:16;0.95;;;0.95;;
934;SDS011;454;53.254;10.400;2024-02-23T07:05:43;1.45;;;1.15;;
934;SDS011;454;53.254;10.400;2024-02-23T07:08:10;1.65;;;1.55;;
934;SDS011;454;53.254;10.400;2024-02-23T07:10:36;0.73;;;0.73;;
934;SDS011;454;53.254;10.400;2024-02-23T07:13:03;1.00;;;1.00;;
934;SDS011;454;53.254;10.400;2024-02-23T07:15:30;1.38;;;1.38;;
934;SDS011;454;53.254;10.400;2024-02-23T07:17:59;1.42;;;1.42;;
934;SDS011;454;53.254;10.400;2024-02-23T07:20:25;0.93;;;0.93;;
934;SDS011;454;53.254;10.400;2024-02-23T07:22:52;1.05;;;1.05;;
934;SDS011;454;53.254;10.400;2024-02-23T07:25:19;1.15;;;1.15;;
934;SDS011;454;53.254;10.400;2024-02-23T07:27:46;1.30;;;1.30;;
934;SDS011;454;53.254;10.400;2024-02-23T07:30:14;1.05;;;1.02;;
934;SDS011;454;53.254;10.400;2024-02-23T07:32:42;2.20;;;1.98;;
934;SDS011;454;53.254;10.400;2024-02-23T07:35:10;7.65;;;4.68;;
934;SDS011;454;53.254;10.400;2024-02-23T07:37:37;5.22;;;3.30;;
934;SDS011;454;53.254;10.400;2024-02-23T07:40:04;2.80;;;2.10;;
934;SDS011;454;53.254;10.400;2024-02-23T07:42:32;5.10;;;2.35;;
934;SDS011;454;53.254;10.400;2024-02-23T07:45:00;7.35;;;4.40;;
934;SDS011;454;53.254;10.400;2024-02-23T07:47:29;13.25;;;7.78;;
934;SDS011;454;53.254;10.400;2024-02-23T07:49:56;4.85;;;4.40;;
934;SDS011;454;53.254;10.400;2024-02-23T07:52:24;2.30;;;2.13;;
934;SDS011;454;53.254;10.400;2024-02-23T07:54:51;1.95;;;1.83;;
934;SDS011;454;53.254;10.400;2024-02-23T07:57:17;1.60;;;1.50;;
934;SDS011;454;53.254;10.400;2024-02-23T07:59:44;2.42;;;2.22;;
934;SDS011;454;53.254;10.400;2024-02-23T08:02:11;4.28;;;3.80;;
934;SDS011;454;53.254;10.400;2024-02-23T08:04:38;6.47;;;3.72;;
934;SDS011;454;53.254;10.400;2024-02-23T08:07:05;3.20;;;1.85;;
934;SDS011;454;53.254;10.400;2024-02-23T08:09:33;3.10;;;2.90;;
934;SDS011;454;53.254;10.400;2024-02-23T08:12:00;4.68;;;2.05;;
934;SDS011;454;53.254;10.400;2024-02-23T08:14:26;5.55;;;3.75;;
934;SDS011;454;53.254;10.400;2024-02-23T08:16:53;1.70;;;1.15;;
934;SDS011;454;53.254;10.400;2024-02-23T08:19:20;2.00;;;1.95;;
934;SDS011;454;53.254;10.400;2024-02-23T08:21:46;2.30;;;2.20;;
934;SDS011;454;53.254;10.400;2024-02-23T08:24:13;2.15;;;2.05;;
934;SDS011;454;53.254;10.400;2024-02-23T08:26:41;3.70;;;2.50;;
934;SDS011;454;53.254;10.400;2024-02-23T08:29:08;1.10;;;1.10;;
934;SDS011;454;53.254;10.400;2024-02-23T08:31:34;4.72;;;4.35;;
934;SDS011;454;53.254;10.400;2024-02-23T08:34:01;1.83;;;1.60;;
934;SDS011;454;53.254;10.400;2024-02-23T08:36:28;1.60;;;1.27;;
934;SDS011;454;53.254;10.400;2024-02-23T08:38:54;2.03;;;1.92;;
934;SDS011;454;53.254;10.400;2024-02-23T08:41:21;0.70;;;0.70;;
934;SDS011;454;53.254;10.400;2024-02-23T08:43:49;2.88;;;2.13;;
934;SDS011;454;53.254;10.400;2024-02-23T08:46:16;2.60;;;1.80;;
934;SDS011;454;53.254;10.400;2024-02-23T08:48:43;7.80;;;2.63;;
934;SDS011;454;53.254;10.400;2024-02-23T08:51:10;1.45;;;1.35;;
934;SDS011;454;53.254;10.400;2024-02-23T08:53:37;0.93;;;0.93;;
934;SDS011;454;53.254;10.400;2024-02-23T08:56:04;2.15;;;1.02;;
934;SDS011;454;53.254;10.400;2024-02-23T08:58:33;2.38;;;1.33;;
934;SDS011;454;53.254;10.400;2024-02-23T09:01:01;3.50;;;1.25;;
934;SDS011;454;53.254;10.400;2024-02-23T09:03:29;1.30;;;1.30;;
934;SDS011;454;53.254;10.400;2024-02-23T09:05:56;3.70;;;1.20;;
934;SDS011;454;53.254;10.400;2024-02-23T09:08:23;0.95;;;0.93;;
934;SDS011;454;53.254;10.400;2024-02-23T09:10:50;0.93;;;0.93;;
934;SDS011;454;53.254;10.400;2024-02-23T09:13:16;0.75;;;0.75;;
934;SDS011;454;53.254;10.400;2024-02-23T09:15:43;1.75;;;1.20;;
934;SDS011;454;53.254;10.400;2024-02-23T09:18:11;1.25;;;1.13;;
934;SDS011;454;53.254;10.400;2024-02-23T09:20:38;1.70;;;1.60;;
934;SDS011;454;53.254;10.400;2024-02-23T09:23:04;2.25;;;1.20;;
934;SDS011;454;53.254;10.400;2024-02-23T09:25:31;1.02;;;1.02;;
934;SDS011;454;53.254;10.400;2024-02-23T09:27:58;2.70;;;0.82;;
934;SDS011;454;53.254;10.400;2024-02-23T09:30:24;1.55;;;0.95;;
934;SDS011;454;53.254;10.400;2024-02-23T09:32:51;1.23;;;0.80;;
934;SDS011;454;53.254;10.400;2024-02-23T09:35:20;1.65;;;1.15;;
934;SDS011;454;53.254;10.400;2024-02-23T09:37:47;0.52;;;0.52;;
934;SDS011;454;53.254;10.400;2024-02-23T09:40:14;1.20;;;1.20;;
934;SDS011;454;53.254;10.400;2024-02-23T09:42:41;1.20;;;0.80;;
934;SDS011;454;53.254;10.400;2024-02-23T09:45:08;0.73;;;0.73;;
934;SDS011;454;53.254;10.400;2024-02-23T09:47:37;1.35;;;1.35;;
934;SDS011;454;53.254;10.400;2024-02-23T09:50:05;0.60;;;0.60;;
934;SDS011;454;53.254;10.400;2024-02-23T09:52:35;1.15;;;0.50;;
934;SDS011;454;53.254;10.400;2024-02-23T09:55:02;0.98;;;0.55;;
934;SDS011;454;53.254;10.400;2024-02-23T09:57:29;0.93;;;0.63;;
934;SDS011;454;53.254;10.400;2024-02-23T09:59:56;1.35;;;0.90;;
934;SDS011;454;53.254;10.400;2024-02-23T10:02:23;0.43;;;0.43;;
934;SDS011;454;53.254;10.400;2024-02-23T10:04:51;3.97;;;1.38;;
934;SDS011;454;53.254;10.400;2024-02-23T10:07:19;0.80;;;0.80;;
934;SDS011;454;53.254;10.400;2024-02-23T10:09:47;0.50;;;0.50;;
934;SDS011;454;53.254;10.400;2024-02-23T10:12:15;1.40;;;0.82;;
934;SDS011;454;53.254;10.400;2024-02-23T10:14:43;4.32;;;0.82;;
934;SDS011;454;53.254;10.400;2024-02-23T10:17:09;0.50;;;0.50;;
934;SDS011;454;53.254;10.400;2024-02-23T10:19:36;0.93;;;0.80;;
934;SDS011;454;53.254;10.400;2024-02-23T10:22:03;3.08;;;0.57;;
934;SDS011;454;53.254;10.400;2024-02-23T10:24:31;0.70;;;0.70;;
934;SDS011;454;53.254;10.400;2024-02-23T10:26:59;0.50;;;0.50;;
934;SDS011;454;53.254;10.400;2024-02-23T10:29:26;0.55;;;0.55;;
934;SDS011;454;53.254;10.400;2024-02-23T10:31:53;0.93;;;0.93;;
934;SDS011;454;53.254;10.400;2024-02-23T10:34:23;1.55;;;0.90;;
934;SDS011;454;53.254;10.400;2024-02-23T10:36:53;0.70;;;0.40;;
934;SDS011;454;53.254;10.400;2024-02-23T10:39:21;2.22;;;1.48;;
934;SDS011;454;53.254;10.400;2024-02-23T10:41:51;3.22;;;1.00;;
934;SDS011;454;53.254;10.400;2024-02-23T10:44:23;1.40;;;1.10;;
934;SDS011;454;53.254;10.400;2024-02-23T10:46:52;2.22;;;2.10;;
934;SDS011;454;53.254;10.400;2024-02-23T10:49:20;1.60;;;1.60;;
934;SDS011;454;53.254;10.400;2024-02-23T10:51:51;0.90;;;0.90;;
934;SDS011;454;53.254;10.400;2024-02-23T10:54:18;1.15;;;0.90;;
934;SDS011;454;53.254;10.400;2024-02-23T10:56:46;1.42;;;1.33;;
934;SDS011;454;53.254;10.400;2024-02-23T10:59:14;0.93;;;0.93;;
934;SDS011;454;53.254;10.400;2024-02-23T11:01:44;4.05;;;1.35;;
934;SDS011;454;53.254;10.400;2024-02-23T11:04:14;1.75;;;1.65;;
934;SDS011;454;53.254;10.400;2024-02-23T11:06:42;1.63;;;1.52;;
934;SDS011;454;53.254;10.400;2024-02-23T11:09:11;2.47;;;0.80;;
934;SDS011;454;53.254;10.400;2024-02-23T11:11:38;3.13;;;2.47;;
934;SDS011;454;53.254;10.400;2024-02-23T11:14:09;3.15;;;0.98;;
934;SDS011;454;53.254;10.400;2024-02-23T11:16:38;0.70;;;0.70;;
934;SDS011;454;53.254;10.400;2024-02-23T11:19:08;2.10;;;2.00;;
934;SDS011;454;53.254;10.400;2024-02-23T11:21:36;0.40;;;0.40;;
934;SDS011;454;53.254;10.400;2024-02-23T11:24:04;1.20;;;1.20;;
934;SDS011;454;53.254;10.400;2024-02-23T11:26:31;2.30;;;0.80;;
934;SDS011;454;53.254;10.400;2024-02-23T11:28:58;1.90;;;0.88;;
934;SDS011;454;53.254;10.400;2024-02-23T11:31:29;0.65;;;0.65;;
934;SDS011;454;53.254;10.400;2024-02-23T11:33:56;0.55;;;0.43;;
934;SDS011;454;53.254;10.400;2024-02-23T11:36:27;0.60;;;0.60;;
934;SDS011;454;53.254;10.400;2024-02-23T11:38:56;2.60;;;0.70;;
934;SDS011;454;53.254;10.400;2024-02-23T11:41:23;0.52;;;0.52;;
934;SDS011;454;53.254;10.400;2024-02-23T11:43:51;0.38;;;0.38;;
934;SDS011;454;53.254;10.400;2024-02-23T11:46:18;0.32;;;0.32;;
934;SDS011;454;53.254;10.400;2024-02-23T11:48:46;0.30;;;0.25;;
934;SDS011;454;53.254;10.400;2024-02-23T11:51:18;0.43;;;0.43;;
934;SDS011;454;53.254;10.400;2024-02-23T11:53:47;0.50;;;0.38;;
934;SDS011;454;53.254;10.400;2024-02-23T11:56:14;0.40;;;0.40;;
934;SDS011;454;53.254;10.400;2024-02-23T11:58:41;1.77;;;0.30;;
934;SDS011;454;53.254;10.400;2024-02-23T12:01:08;0.55;;;0.35;;
934;SDS011;454;53.254;10.400;2024-02-23T12:03:35;0.95;;;0.60;;
934;SDS011;454;53.254;10.400;2024-02-23T12:06:04;0.95;;;0.30;;
934;SDS011;454;53.254;10.400;2024-02-23T12:08:31;1.00;;;0.50;;
934;SDS011;454;53.254;10.400;2024-02-23T12:11:04;0.82;;;0.50;;
934;SDS011;454;53.254;10.400;2024-02-23T12:13:33;2.33;;;0.50;;
934;SDS011;454;53.254;10.400;2024-02-23T12:16:00;0.32;;;0.32;;
934;SDS011;454;53.254;10.400;2024-02-23T12:18:27;0.50;;;0.50;;
934;SDS011;454;53.254;10.400;2024-02-23T12:20:58;1.42;;;1.33;;
934;SDS011;454;53.254;10.400;2024-02-23T12:23:25;1.90;;;0.60;;
934;SDS011;454;53.254;10.400;2024-02-23T12:25:52;0.30;;;0.30;;
934;SDS011;454;53.254;10.400;2024-02-23T12:28:21;0.50;;;0.50;;
934;SDS011;454;53.254;10.400;2024-02-23T12:30:57;3.70;;;0.40;;
934;SDS011;454;53.254;10.400;2024-02-23T12:33:27;1.75;;;0.50;;
934;SDS011;454;53.254;10.400;2024-02-23T12:35:55;0.30;;;0.30;;
934;SDS011;454;53.254;10.400;2024-02-23T12:38:22;0.38;;;0.38;;
934;SDS011;454;53.254;10.400;2024-02-23T12:40:49;1.52;;;0.30;;
934;SDS011;454;53.254;10.400;2024-02-23T12:43:16;0.30;;;0.30;;
934;SDS011;454;53.254;10.400;2024-02-23T12:45:47;0.55;;;0.40;;
934;SDS011;454;53.254;10.400;2024-02-23T12:48:15;0.50;;;0.35;;
934;SDS011;454;53.254;10.400;2024-02-23T12:50:42;4.45;;;0.95;;
934;SDS011;454;53.254;10.400;2024-02-23T12:53:09;1.20;;;0.30;;
934;SDS011;454;53.254;10.400;2024-02-23T12:55:37;0.40;;;0.40;;
934;SDS011;454;53.254;10.400;2024-02-23T12:58:04;0.60;;;0.37;;
934;SDS011;454;53.254;10.400;2024-02-23T13:00:31;0.68;;;0.68;;
934;SDS011;454;53.254;10.400;2024-02-23T13:02:59;0.95;;;0.40;;
934;SDS011;454;53.254;10.400;2024-02-23T13:05:26;0.30;;;0.30;;
934;SDS011;454;53.254;10.400;2024-02-23T13:07:52;0.82;;;0.40;;
934;SDS011;454;53.254;10.400;2024-02-23T13:10:19;0.30;;;0.30;;
934;SDS011;454;53.254;10.400;2024-02-23T13:12:46;1.10;;;0.30;;
934;SDS011;454;53.254;10.400;2024-02-23T13:15:13;1.10;;;0.40;;
934;SDS011;454;53.254;10.400;2024-02-23T13:17:40;0.40;;;0.38;;
934;SDS011;454;53.254;10.400;2024-02-23T13:20:09;0.60;;;0.52;;
934;SDS011;454;53.254;10.400;2024-02-23T13:22:38;0.30;;;0.30;;
934;SDS011;454;53.254;10.400;2024-02-23T13:25:05;1.08;;;0.20;;
934;SDS011;454;53.254;10.400;2024-02-23T13:27:32;0.73;;;0.50;;
934;SDS011;454;53.254;10.400;2024-02-23T13:29:59;0.57;;;0.40;;
934;SDS011;454;53.254;10.400;2024-02-23T13:32:26;0.20;;;0.20;;
934;SDS011;454;53.254;10.400;2024-02-23T13:34:52;0.25;;;0.25;;
934;SDS011;454;53.254;10.400;2024-02-23T13:37:21;0.20;;;0.20;;
934;SDS011;454;53.254;10.400;2024-02-23T13:39:47;0.30;;;0.30;;
934;SDS011;454;53.254;10.400;2024-02-23T13:42:14;0.22;;;0.22;;
934;SDS011;454;53.254;10.400;2024-02-23T13:44:41;0.20;;;0.20;;
934;SDS011;454;53.254;10.400;2024-02-23T13:47:08;1.30;;;0.32;;
934;SDS011;454;53.254;10.400;2024-02-23T13:49:37;0.90;;;0.40;;
934;SDS011;454;53.254;10.400;2024-02-23T13:52:04;0.68;;;0.40;;
934;SDS011;454;53.254;10.400;2024-02-23T13:54:32;1.13;;;0.30;;
934;SDS011;454;53.254;10.400;2024-02-23T13:56:59;0.50;;;0.50;;
934;SDS011;454;53.254;10.400;2024-02-23T13:59:26;0.20;;;0.20;;
934;SDS011;454;53.254;10.400;2024-02-23T14:01:52;0.20;;;0.20;;
934;SDS011;454;53.254;10.400;2024-02-23T14:04:19;0.45;;;0.40;;
934;SDS011;454;53.254;10.400;2024-02-23T14:06:46;0.47;;;0.47;;
934;SDS011;454;53.254;10.400;2024-02-23T14:09:13;1.35;;;0.70;;
934;SDS011;454;53.254;10.400;2024-02-23T14:11:41;0.40;;;0.40;;
934;SDS011;454;53.254;10.400;2024-02-23T14:14:07;2.78;;;0.50;;
934;SDS011;454;53.254;10.400;2024-02-23T14:16:34;0.30;;;0.30;;
934;SDS011;454;53.254;10.400;2024-02-23T14:19:01;0.40;;;0.40;;
934;SDS011;454;53.254;10.400;2024-02-23T14:21:28;0.70;;;0.70;;
934;SDS011;454;53.254;10.400;2024-02-23T14:23:55;1.35;;;0.57;;
934;SDS011;454;53.254;10.400;2024-02-23T14:26:22;0.45;;;0.45;;
934;SDS011;454;53.254;10.400;2024-02-23T14:28:50;0.75;;;0.50;;
934;SDS011;454;53.254;10.400;2024-02-23T14:31:16;0.65;;;0.50;;
934;SDS011;454;53.254;10.400;2024-02-23T14:33:43;0.30;;;0.30;;
934;SDS011;454;53.254;10.400;2024-02-23T14:36:10;0.73;;;0.30;;
934;SDS011;454;53.254;10.400;2024-02-23T14:38:37;0.40;;;0.40;;
934;SDS011;454;53.254;10.400;2024-02-23T14:41:03;0.52;;;0.52;;
934;SDS011;454;53.254;10.400;2024-02-23T14:43:34;0.45;;;0.45;;
934;SDS011;454;53.254;10.400;2024-02-23T14:46:02;0.52;;;0.50;;
934;SDS011;454;53.254;10.400;2024-02-23T14:48:30;1.85;;;0.30;;
934;SDS011;454;53.254;10.400;2024-02-23T14:50:57;0.68;;;0.45;;
934;SDS011;454;53.254;10.400;2024-02-23T14:53:23;0.40;;;0.40;;
934;SDS011;454;53.254;10.400;2024-02-23T14:55:51;0.65;;;0.65;;
934;SDS011;454;53.254;10.400;2024-02-23T14:58:18;0.80;;;0.40;;
934;SDS011;454;53.254;10.400;2024-02-23T15:00:45;0.50;;;0.50;;
934;SDS011;454;53.254;10.400;2024-02-23T15:03:13;0.30;;;0.30;;
934;SDS011;454;53.254;10.400;2024-02-23T15:05:40;0.30;;;0.30;;
934;SDS011;454;53.254;10.400;2024-02-23T15:08:07;0.63;;;0.63;;
934;SDS011;454;53.254;10.400;2024-02-23T15:10:33;0.47;;;0.47;;
934;SDS011;454;53.254;10.400;2024-02-23T15:13:00;3.05;;;0.68;;
934;SDS011;454;53.254;10.400;2024-02-23T15:15:27;0.40;;;0.40;;
934;SDS011;454;53.254;10.400;2024-02-23T15:17:53;0.40;;;0.40;;
934;SDS011;454;53.254;10.400;2024-02-23T15:20:22;0.95;;;0.95;;
934;SDS011;454;53.254;10.400;2024-02-23T15:22:48;1.00;;;0.30;;
934;SDS011;454;53.254;10.400;2024-02-23T15:25:15;0.47;;;0.40;;
934;SDS011;454;53.254;10.400;2024-02-23T15:27:42;0.50;;;0.50;;
934;SDS011;454;53.254;10.400;2024-02-23T15:30:09;0.25;;;0.25;;
934;SDS011;454;53.254;10.400;2024-02-23T15:32:36;0.60;;;0.35;;
934;SDS011;454;53.254;10.400;2024-02-23T15:35:03;0.22;;;0.22;;
934;SDS011;454;53.254;10.400;2024-02-23T15:37:32;0.20;;;0.20;;
934;SDS011;454;53.254;10.400;2024-02-23T15:40:00;0.50;;;0.43;;
934;SDS011;454;53.254;10.400;2024-02-23T15:42:28;0.50;;;0.40;;
934;SDS011;454;53.254;10.400;2024-02-23T15:44:55;0.30;;;0.30;;
934;SDS011;454;53.254;10.400;2024-02-23T15:47:21;2.63;;;0.47;;
934;SDS011;454;53.254;10.400;2024-02-23T15:49:48;4.40;;;0.57;;
934;SDS011;454;53.254;10.400;2024-02-23T15:52:16;3.90;;;0.60;;
934;SDS011;454;53.254;10.400;2024-02-23T15:54:44;0.57;;;0.40;;
934;SDS011;454;53.254;10.400;2024-02-23T15:57:11;1.25;;;0.38;;
934;SDS011;454;53.254;10.400;2024-02-23T15:59:38;0.30;;;0.30;;
934;SDS011;454;53.254;10.400;2024-02-23T16:02:04;0.20;;;0.20;;
934;SDS011;454;53.254;10.400;2024-02-23T16:04:32;0.30;;;0.30;;
934;SDS011;454;53.254;10.400;2024-02-23T16:06:59;1.00;;;0.63;;
934;SDS011;454;53.254;10.400;2024-02-23T16:09:26;0.40;;;0.40;;
934;SDS011;454;53.254;10.400;2024-02-23T16:11:54;0.45;;;0.40;;
934;SDS011;454;53.254;10.400;2024-02-23T16:14:21;1.85;;;0.20;;
934;SDS011;454;53.254;10.400;2024-02-23T16:16:48;1.05;;;0.90;;
934;SDS011;454;53.254;10.400;2024-02-23T16:19:15;0.50;;;0.32;;
934;SDS011;454;53.254;10.400;2024-02-23T16:21:43;0.30;;;0.30;;
934;SDS011;454;53.254;10.400;2024-02-23T16:24:11;0.50;;;0.50;;
934;SDS011;454;53.254;10.400;2024-02-23T16:26:37;0.20;;;0.20;;
934;SDS011;454;53.254;10.400;2024-02-23T16:29:06;0.50;;;0.50;;
934;SDS011;454;53.254;10.400;2024-02-23T16:31:34;0.43;;;0.40;;
934;SDS011;454;53.254;10.400;2024-02-23T16:34:01;0.47;;;0.47;;
934;SDS011;454;53.254;10.400;2024-02-23T16:36:28;0.50;;;0.50;;
934;SDS011;454;53.254;10.400;2024-02-23T16:38:55;0.30;;;0.30;;
934;SDS011;454;53.254;10.400;2024-02-23T16:41:21;0.60;;;0.60;;
934;SDS011;454;53.254;10.400;2024-02-23T16:43:48;1.85;;;0.63;;
934;SDS011;454;53.254;10.400;2024-02-23T16:46:17;0.57;;;0.57;;
934;SDS011;454;53.254;10.400;2024-02-23T16:48:44;0.82;;;0.82;;
934;SDS011;454;53.254;10.400;2024-02-23T16:51:10;0.30;;;0.30;;
934;SDS011;454;53.254;10.400;2024-02-23T16:53:37;0.50;;;0.50;;
934;SDS011;454;53.254;10.400;2024-02-23T16:56:04;0.57;;;0.57;;
934;SDS011;454;53.254;10.400;2024-02-23T16:58:31;0.80;;;0.80;;
934;SDS011;454;53.254;10.400;2024-02-23T17:01:01;0.55;;;0.55;;
934;SDS011;454;53.254;10.400;2024-02-23T17:03:30;0.60;;;0.60;;
934;SDS011;454;53.254;10.400;2024-02-23T17:05:57;0.30;;;0.30;;
934;SDS011;454;53.254;10.400;2024-02-23T17:08:26;0.63;;;0.57;;
934;SDS011;454;53.254;10.400;2024-02-23T17:10:52;0.68;;;0.68;;
934;SDS011;454;53.254;10.400;2024-02-23T17:13:19;1.10;;;0.40;;
934;SDS011;454;53.254;10.400;2024-02-23T17:15:46;0.80;;;0.80;;
934;SDS011;454;53.254;10.400;2024-02-23T17:18:13;0.70;;;0.70;;
934;SDS011;454;53.254;10.400;2024-02-23T17:20:41;2.70;;;0.68;;
934;SDS011;454;53.254;10.400;2024-02-23T17:23:07;1.42;;;0.90;;
934;SDS011;454;53.254;10.400;2024-02-23T17:25:34;0.45;;;0.45;;
934;SDS011;454;53.254;10.400;2024-02-23T17:28:01;2.47;;;0.60;;
934;SDS011;454;53.254;10.400;2024-02-23T17:30:27;0.63;;;0.50;;
934;SDS011;454;53.254;10.400;2024-02-23T17:32:55;2.05;;;0.65;;
934;SDS011;454;53.254;10.400;2024-02-23T17:35:22;4.20;;;1.10;;
934;SDS011;454;53.254;10.400;2024-02-23T17:37:50;0.70;;;0.70;;
934;SDS011;454;53.254;10.400;2024-02-23T17:40:16;1.42;;;0.43;;
934;SDS011;454;53.254;10.400;2024-02-23T17:42:43;1.20;;;1.02;;
934;SDS011;454;53.254;10.400;2024-02-23T17:45:10;4.10;;;0.73;;
934;SDS011;454;53.254;10.400;2024-02-23T17:47:36;0.40;;;0.40;;
934;SDS011;454;53.254;10.400;2024-02-23T17:50:04;0.50;;;0.50;;
934;SDS011;454;53.254;10.400;2024-02-23T17:52:31;0.60;;;0.60;;
934;SDS011;454;53.254;10.400;2024-02-23T17:54:59;2.95;;;0.55;;
934;SDS011;454;53.254;10.400;2024-02-23T17:57:26;1.70;;;0.95;;
934;SDS011;454;53.254;10.400;2024-02-23T17:59:53;0.50;;;0.50;;
934;SDS011;454;53.254;10.400;2024-02-23T18:02:20;0.70;;;0.70;;
934;SDS011;454;53.254;10.400;2024-02-23T18:04:46;0.50;;;0.50;;
934;SDS011;454;53.254;10.400;2024-02-23T18:07:13;0.88;;;0.88;;
934;SDS011;454;53.254;10.400;2024-02-23T18:09:40;0.85;;;0.85;;
934;SDS011;454;53.254;10.400;2024-02-23T18:12:09;1.63;;;0.90;;
934;SDS011;454;53.254;10.400;2024-02-23T18:14:36;1.05;;;0.60;;
934;SDS011;454;53.254;10.400;2024-02-23T18:17:02;1.58;;;0.93;;
934;SDS011;454;53.254;10.400;2024-02-23T18:19:29;2.35;;;0.73;;
934;SDS011;454;53.254;10.400;2024-02-23T18:21:56;6.90;;;0.70;;
934;SDS011;454;53.254;10.400;2024-02-23T18:24:24;1.45;;;0.93;;
934;SDS011;454;53.254;10.400;2024-02-23T18:26:51;1.05;;;0.82;;
934;SDS011;454;53.254;10.400;2024-02-23T18:29:19;2.60;;;0.82;;
934;SDS011;454;53.254;10.400;2024-02-23T18:31:45;0.68;;;0.65;;
934;SDS011;454;53.254;10.400;2024-02-23T18:34:12;1.83;;;0.63;;
934;SDS011;454;53.254;10.400;2024-02-23T18:36:39;3.45;;;0.93;;
934;SDS011;454;53.254;10.400;2024-02-23T18:39:06;0.80;;;0.80;;
934;SDS011;454;53.254;10.400;2024-02-23T18:41:34;4.20;;;1.15;;
934;SDS011;454;53.254;10.400;2024-02-23T18:44:02;2.33;;;0.85;;
934;SDS011;454;53.254;10.400;2024-02-23T18:46:30;0.57;;;0.55;;
934;SDS011;454;53.254;10.400;2024-02-23T18:48:57;0.47;;;0.47;;
934;SDS011;454;53.254;10.400;2024-02-23T18:51:24;1.30;;;0.85;;
934;SDS011;454;53.254;10.400;2024-02-23T18:53:53;0.35;;;0.35;;
934;SDS011;454;53.254;10.400;2024-02-23T18:56:20;0.85;;;0.85;;
934;SDS011;454;53.254;10.400;2024-02-23T18:58:47;1.60;;;0.60;;
934;SDS011;454;53.254;10.400;2024-02-23T19:01:14;1.35;;;1.00;;
934;SDS011;454;53.254;10.400;2024-02-23T19:03:42;0.93;;;0.93;;
934;SDS011;454;53.254;10.400;2024-02-23T19:06:08;0.70;;;0.70;;
934;SDS011;454;53.254;10.400;2024-02-23T19:08:35;0.52;;;0.52;;
934;SDS011;454;53.254;10.400;2024-02-23T19:11:02;0.80;;;0.80;;
934;SDS011;454;53.254;10.400;2024-02-23T19:13:29;0.60;;;0.60;;
934;SDS011;454;53.254;10.400;2024-02-23T19:15:56;1.13;;;0.65;;
934;SDS011;454;53.254;10.400;2024-02-23T19:18:23;0.95;;;0.95;;
934;SDS011;454;53.254;10.400;2024-02-23T19:20:51;0.65;;;0.55;;
934;SDS011;454;53.254;10.400;2024-02-23T19:23:18;1.00;;;0.50;;
934;SDS011;454;53.254;10.400;2024-02-23T19:25:45;2.15;;;1.65;;
934;SDS011;454;53.254;10.400;2024-02-23T19:28:12;0.73;;;0.70;;
934;SDS011;454;53.254;10.400;2024-02-23T19:30:38;0.38;;;0.38;;
934;SDS011;454;53.254;10.400;2024-02-23T19:33:08;0.60;;;0.60;;
934;SDS011;454;53.254;10.400;2024-02-23T19:35:35;1.02;;;1.02;;
934;SDS011;454;53.254;10.400;2024-02-23T19:38:03;1.15;;;1.15;;
934;SDS011;454;53.254;10.400;2024-02-23T19:40:30;0.68;;;0.68;;
934;SDS011;454;53.254;10.400;2024-02-23T19:42:57;1.30;;;1.30;;
934;SDS011;454;53.254;10.400;2024-02-23T19:45:23;0.52;;;0.52;;
934;SDS011;454;53.254;10.400;2024-02-23T19:47:50;2.13;;;0.43;;
934;SDS011;454;53.254;10.400;2024-02-23T19:50:17;2.47;;;0.60;;
934;SDS011;454;53.254;10.400;2024-02-23T19:52:44;0.73;;;0.70;;
934;SDS011;454;53.254;10.400;2024-02-23T19:55:12;0.60;;;0.60;;
934;SDS011;454;53.254;10.400;2024-02-23T19:57:39;0.63;;;0.55;;
934;SDS011;454;53.254;10.400;2024-02-23T20:00:06;0.63;;;0.63;;
934;SDS011;454;53.254;10.400;2024-02-23T20:02:33;0.50;;;0.50;;
934;SDS011;454;53.254;10.400;2024-02-23T20:05:01;0.57;;;0.57;;
934;SDS011;454;53.254;10.400;2024-02-23T20:07:28;0.43;;;0.43;;
934;SDS011;454;53.254;10.400;2024-02-23T20:09:55;0.65;;;0.65;;
934;SDS011;454;53.254;10.400;2024-02-23T20:12:23;0.52;;;0.52;;
934;SDS011;454;53.254;10.400;2024-02-23T20:14:49;0.77;;;0.77;;
934;SDS011;454;53.254;10.400;2024-02-23T20:17:16;0.80;;;0.80;;
934;SDS011;454;53.254;10.400;2024-02-23T20:19:43;0.70;;;0.70;;
934;SDS011;454;53.254;10.400;2024-02-23T20:22:10;0.85;;;0.85;;
934;SDS011;454;53.254;10.400;2024-02-23T20:24:39;0.70;;;0.68;;
934;SDS011;454;53.254;10.400;2024-02-23T20:27:06;0.63;;;0.63;;
934;SDS011;454;53.254;10.400;2024-02-23T20:29:34;1.77;;;1.60;;